EmailTwitter


Observations de surface / France / LFBP (07610)

Régions: Québec | Canada | États-Unis | Europe | France | UK | Ailleurs
Station
Affichage
Infos & localisation pour LFBP (07610) | Aide pour décoder les METARs

Observations prises le 2020-02-17 à 08H00 UTC à PONT-LONG-UZEIN/, FR (LFBP)

Etat du ciel: couvert.

Température: 12.0 Celsius

Point de rosée: 10.0 Celsius

Humidité relative: 88%

Vents: Sud-ouest à 11 km/h ou 6 noeuds.

Pression au niveau moyen de la mer: 102.40 kilopascals.

Visibilité horizontale: 6.21 milles terrestres ou 9.94 kilomètres.

Hauteur du plafond: 549 mètres ( 1800 pieds ).

Observation METAR:

LFBP 170800Z AUTO 24006KT 9999 OVC018 12/10 Q1024 BECMG BKN008 OVC025=